• Join FlightAware (Why Join?)
  • Login
  • US Flag 
11:38PM EDT


 

Airport Tracker/Info


-or-


 

Live Flight TrackerFlight Track Log ✈ CTL22 ✈ 14-May-2013 ✈ KAZO - KBKL

Flight Track Log - Related Links

Times and Time Zones

All times are in EDT time to prevent confusion due to time zone crossing. See the CTL22 flight status page for this flight to view local times or setup timezone preferences in your user account.

Time Position Orientation Groundspeed Altitude Reporting Facility
EDT Latitude Longitude Course Direction KTS MPH feet Rate Location/Type
08:29PM 42.1747 -85.4281 110° East 150 173 3,900  Level Chicago Center
08:30PM 42.1606 -85.3600 106° East 155 178 4,400 360 Climbing Chicago Center
08:31PM 42.1508 -85.3003 102° East 160 184 4,700 300 Climbing Chicago Center
08:32PM 42.1666 -85.1491 103° East  Level Estimated
08:32PM 42.1317 -85.2425 114° Southeast 167 192 5,100  Level Chicago Center
08:33PM 42.1551 -85.0821 103° East  Level Estimated
08:33PM 42.1147 -85.1825 111° Southeast 170 196 5,500  Level Chicago Center
08:34PM 42.0972 -85.1225 111° Southeast 171 197 6,000 420 Climbing Chicago Center
08:35PM 42.0792 -85.0608 112° Southeast 174 200 6,400 300 Climbing Chicago Center
08:36PM 42.0569 -85.0006 116° Southeast 178 205 6,700 240 Climbing Chicago Center
08:37PM 42.0283 -84.9283 118° Southeast 181 208 7,000 120 Climbing Chicago Center
08:38PM 42.0078 -84.8597 112° Southeast 192 221 7,000 -120 Level Chicago Center
08:39PM 41.9903 -84.7908 109° East 194 223 6,800 -60 Descending Chicago Center
08:40PM 41.9731 -84.7181 108° East 201 231 6,900 60 Climbing Chicago Center
08:41PM 41.9522 -84.6497 112° Southeast 198 228 7,000  Climbing Chicago Center
08:42PM 41.9306 -84.5786 112° Southeast 202 232 7,000 -60 Level Chicago Center
08:43PM 41.9061 -84.5103 116° Southeast 202 232 6,900 -60 Descending Chicago Center
08:44PM 41.8714 -84.4325 121° Southeast 202 232 6,900  Level Chicago Center
08:45PM 41.8422 -84.3644 120° Southeast 207 238 6,900  Level Chicago Center
08:46PM 41.8178 -84.2956 115° Southeast 207 238 7,000  Climbing Chicago Center
08:47PM 41.7903 -84.2297 119° Southeast 204 235 7,000  Level Chicago Center
08:48PM 41.7628 -84.1611 118° Southeast 206 237 7,000  Level Chicago Center
08:49PM 41.7339 -84.0978 121° Southeast 204 235 7,000  Level Chicago Center